Time;durP1;ratioP1;P1;durP2;ratioP2;P2;SDS_P1;SDS_P2;PMS_P1;PMS_P2;Temp;Humidity;BMP_temperature;BMP_pressure;BME280_temperature;BME280_humidity;BME280_pressure;Samples;Min_cycle;Max_cycle;Signal;HPM_P1;HPM_P2
2023/05/27 00:01:25;;;;;;;24.83;5.80;;;14.40;64.40;;;13.79;51.00;101801.88;5049946;28;20067;-79
2023/05/27 00:03:52;;;;;;;23.42;5.65;;;14.40;64.50;;;13.71;50.86;101811.94;5050480;28;20044;-80
2023/05/27 00:06:19;;;;;;;23.20;6.38;;;14.30;64.60;;;13.64;51.16;101804.69;5050093;28;20040;-80
2023/05/27 00:08:46;;;;;;;27.48;6.70;;;14.30;64.90;;;13.60;51.46;101807.97;5057011;28;20045;-80
2023/05/27 00:11:15;;;;;;;25.15;5.75;;;14.20;64.70;;;13.61;51.44;101807.75;5067668;28;20047;-79
2023/05/27 00:13:42;;;;;;;23.95;5.65;;;14.20;64.90;;;13.60;51.41;101805.28;5046223;28;20055;-81
2023/05/27 00:16:11;;;;;;;25.17;6.55;;;14.20;65.00;;;13.56;51.54;101798.66;5049006;28;20048;-79
2023/05/27 00:18:38;;;;;;;24.70;5.50;;;14.20;65.20;;;13.55;51.50;101805.06;5054064;28;20086;-79
2023/05/27 00:21:05;;;;;;;25.15;6.30;;;14.10;65.20;;;13.52;51.61;101795.56;5048930;28;20131;-79
2023/05/27 00:23:33;;;;;;;21.08;5.68;;;14.10;65.20;;;13.53;51.69;101796.38;5050746;28;20469;-80
2023/05/27 00:26:00;;;;;;;24.92;6.45;;;14.10;65.40;;;13.51;51.77;101799.25;5038801;28;20081;-80
2023/05/27 00:28:31;;;;;;;29.08;6.28;;;14.10;65.60;;;13.46;51.80;101804.38;5032398;28;20552;-79
2023/05/27 00:30:58;;;;;;;22.63;6.53;;;14.10;65.80;;;13.42;51.92;101795.09;5051174;28;20074;-80
2023/05/27 00:33:25;;;;;;;20.75;6.20;;;14.00;65.90;;;13.39;52.16;101798.16;5037467;28;20506;-79
2023/05/27 00:35:52;;;;;;;25.05;6.35;;;13.90;66.10;;;13.36;52.51;101790.50;5031356;28;20088;-80
2023/05/27 00:38:20;;;;;;;20.75;6.63;;;13.90;66.50;;;13.31;52.55;101791.09;5057533;28;20131;-79
2023/05/27 00:40:50;;;;;;;21.60;6.38;;;13.90;66.50;;;13.33;52.28;101798.97;5038145;28;20085;-79
2023/05/27 00:43:17;;;;;;;24.42;6.53;;;13.90;66.80;;;13.29;52.70;101795.00;5045081;28;20029;-79
2023/05/27 00:45:46;;;;;;;23.40;6.47;;;13.80;66.90;;;13.24;52.78;101794.78;5047084;28;20102;-80
2023/05/27 00:48:13;;;;;;;21.35;6.90;;;13.80;67.00;;;13.22;52.74;101794.94;5051110;28;20071;-78
2023/05/27 00:50:41;;;;;;;17.48;6.13;;;13.80;67.20;;;13.23;52.70;101798.47;5054898;28;20451;-81
2023/05/27 00:53:08;;;;;;;17.80;5.70;;;13.80;67.00;;;13.23;53.05;101801.16;5030445;28;20509;-80
2023/05/27 00:55:35;;;;;;;23.58;6.53;;;13.80;67.20;;;13.23;53.00;101798.47;5032299;28;20421;-79
2023/05/27 00:58:03;;;;;;;17.42;5.75;;;13.80;67.10;;;13.20;53.11;101794.28;5055947;28;20145;-79
2023/05/27 01:00:31;;;;;;;29.67;6.30;;;13.80;67.30;;;13.16;53.03;101798.38;5038271;28;20088;-79
2023/05/27 01:03:00;;;;;;;20.20;6.40;;;13.70;67.40;;;13.14;53.35;101805.81;5056763;28;20037;-78
2023/05/27 01:05:29;;;;;;;27.15;6.13;;;13.70;67.70;;;13.08;53.39;101785.97;5050389;28;20052;-79
2023/05/27 01:08:17;;;;;;;28.42;7.28;;;13.70;67.90;;;13.09;53.20;101792.16;5035076;28;20139;-80
2023/05/27 01:10:49;;;;;;;23.58;6.13;;;13.70;67.70;;;13.08;53.46;101795.88;5031029;28;20070;-79
2023/05/27 01:13:26;;;;;;;21.00;6.40;;;13.60;67.70;;;13.03;53.45;101791.09;5048393;28;20103;-79
2023/05/27 01:15:56;;;;;;;21.02;6.13;;;13.60;67.70;;;13.05;53.47;101794.41;5047780;28;20051;-79
2023/05/27 01:18:29;;;;;;;22.55;7.35;;;13.60;67.80;;;13.02;53.58;101788.59;5047925;28;20072;-79
2023/05/27 01:21:07;;;;;;;21.52;6.40;;;13.60;67.90;;;12.96;53.91;101786.69;5056860;28;20110;-79
2023/05/27 01:23:38;;;;;;;22.25;6.53;;;13.60;68.50;;;12.94;53.71;101786.91;5049147;28;20578;-81
2023/05/27 01:26:05;;;;;;;;;;;13.50;68.30;;;12.94;54.08;101794.13;5028561;28;20037;-80
2023/05/27 01:28:33;;;;;;;23.13;6.35;;;13.50;68.70;;;12.87;54.03;101789.50;5039436;28;19941;-79
2023/05/27 01:31:20;;;;;;;23.58;7.05;;;13.50;68.50;;;12.87;53.89;101783.34;5035260;28;20088;-79
2023/05/27 01:33:57;;;;;;;24.73;6.60;;;13.50;68.60;;;12.85;54.10;101785.38;5041915;28;20501;-81
2023/05/27 01:36:31;;;;;;;23.73;6.28;;;13.40;68.60;;;12.82;54.16;101786.59;5049914;28;20037;-78
2023/05/27 01:39:02;;;;;;;30.25;7.18;;;13.40;68.70;;;12.80;54.24;101782.47;5050204;28;20069;-80
2023/05/27 01:41:31;;;;;;;25.40;7.07;;;13.40;68.90;;;12.80;54.24;101783.28;5046127;28;20047;-79
2023/05/27 01:43:59;;;;;;;20.67;6.47;;;13.40;68.80;;;12.79;54.13;101783.50;5029853;28;20060;-79
2023/05/27 01:46:27;;;;;;;19.80;6.28;;;13.40;68.90;;;12.76;54.29;101778.50;5041120;28;20053;-79
2023/05/27 01:48:54;;;;;;;27.58;6.53;;;13.30;69.00;;;12.73;54.57;101777.03;5060617;28;20044;-80
2023/05/27 01:51:22;;;;;;;22.10;6.60;;;13.30;69.10;;;12.72;54.42;101779.91;5062111;28;20377;-80
2023/05/27 01:53:49;;;;;;;25.67;6.63;;;13.30;69.30;;;12.69;54.59;101774.94;5032756;28;20073;-80
2023/05/27 01:56:17;;;;;;;23.40;6.50;;;13.30;69.30;;;12.66;54.57;101778.84;5028964;28;20073;-79
2023/05/27 01:58:45;;;;;;;28.02;6.78;;;13.20;69.30;;;12.65;54.58;101779.88;5041096;28;20078;-80
2023/05/27 02:01:12;;;;;;;24.02;6.32;;;13.20;69.10;;;12.66;54.56;101784.19;5026831;28;20123;-78
2023/05/27 02:03:40;;;;;;;26.90;6.85;;;13.20;69.30;;;12.65;54.59;101779.03;5028160;28;20048;-80
2023/05/27 02:06:07;;;;;;;25.90;6.90;;;13.20;69.50;;;12.62;54.68;101770.34;5032260;28;21236;-79
2023/05/27 02:08:35;;;;;;;21.42;6.28;;;13.20;69.50;;;12.60;54.58;101771.59;5020996;28;20049;-81
2023/05/27 02:11:02;;;;;;;24.48;5.97;;;13.10;69.60;;;12.58;54.76;101776.28;5046680;28;20072;-79
2023/05/27 02:13:32;;;;;;;18.65;5.63;;;13.10;69.70;;;12.53;54.86;101768.00;5030332;28;20056;-79
2023/05/27 02:15:59;;;;;;;25.08;6.35;;;13.10;70.00;;;12.50;54.83;101769.25;5028095;28;21013;-80
2023/05/27 02:18:27;;;;;;;24.73;6.97;;;13.00;69.80;;;12.51;54.68;101778.09;5032076;28;20056;-79
2023/05/27 02:20:54;;;;;;;23.67;6.07;;;13.00;69.80;;;12.50;54.77;101779.13;5049231;28;20524;-80
2023/05/27 02:23:21;;;;;;;23.77;6.88;;;13.00;69.70;;;12.50;54.95;101781.78;5029419;28;20048;-79
2023/05/27 02:25:49;;;;;;;22.85;6.65;;;13.00;69.70;;;12.49;54.88;101780.97;5039371;28;20856;-79
2023/05/27 02:28:16;;;;;;;21.60;6.07;;;13.00;70.00;;;12.44;55.13;101769.16;5028309;28;20127;-78
2023/05/27 02:30:45;;;;;;;26.25;6.82;;;13.00;70.10;;;12.41;54.98;101766.88;5033270;28;20053;-79
2023/05/27 02:33:12;;;;;;;19.83;6.20;;;12.90;70.10;;;12.40;55.14;101766.06;5025237;28;20045;-79
2023/05/27 02:35:39;;;;;;;24.55;6.10;;;12.90;70.10;;;12.40;55.14;101768.72;5023797;28;20540;-80
2023/05/27 02:38:07;;;;;;;21.02;6.35;;;12.90;70.10;;;12.38;55.00;101771.56;5037236;28;20064;-80
2023/05/27 02:40:34;;;;;;;20.33;6.83;;;12.90;70.10;;;12.35;55.19;101771.97;4994698;23;1184934;-79
2023/05/27 02:43:01;;;;;;;23.80;6.85;;;12.90;70.40;;;12.33;55.22;101776.66;5042476;28;20565;-82
2023/05/27 02:45:28;;;;;;;24.17;6.82;;;12.90;70.30;;;12.32;55.26;101775.03;5029790;28;20068;-81
2023/05/27 02:47:59;;;;;;;21.70;6.10;;;12.90;70.40;;;12.33;55.23;101767.81;5028359;28;20478;-81
2023/05/27 02:50:27;;;;;;;19.08;5.72;;;12.90;70.50;;;12.33;55.21;101771.31;5015830;28;20045;-81
2023/05/27 02:52:54;;;;;;;17.90;6.57;;;12.90;70.40;;;12.32;55.21;101763.50;5009355;28;20065;-81
2023/05/27 02:55:22;;;;;;;24.17;6.40;;;12.80;70.40;;;12.30;55.41;101763.69;4992122;28;20053;-81
2023/05/27 02:57:50;;;;;;;22.13;5.68;;;12.80;70.50;;;12.26;55.53;101750.91;5020433;28;20052;-81
2023/05/27 03:00:18;;;;;;;23.90;6.57;;;12.80;70.60;;;12.24;55.48;101756.41;5011659;28;20050;-81
2023/05/27 03:02:45;;;;;;;23.55;6.25;;;12.80;70.70;;;12.21;55.62;101759.47;5007879;28;20069;-81
2023/05/27 03:05:14;;;;;;;24.67;6.65;;;12.80;71.00;;;12.18;55.75;101757.19;5026900;28;20547;-80
2023/05/27 03:07:42;;;;;;;22.65;6.63;;;12.80;70.90;;;12.17;55.79;101747.50;5016336;28;20053;-81
2023/05/27 03:10:10;;;;;;;26.33;7.35;;;12.70;70.90;;;12.18;55.82;101757.19;5024483;28;20049;-81
2023/05/27 03:12:38;;;;;;;20.50;7.05;;;12.80;70.90;;;12.15;55.75;101752.22;5009646;28;20498;-81
2023/05/27 03:15:07;;;;;;;21.70;6.43;;;12.70;71.10;;;12.15;55.80;101756.72;5024826;28;20501;-81
2023/05/27 03:17:37;;;;;;;19.73;6.53;;;12.70;71.10;;;12.14;55.83;101760.41;5027569;28;20050;-81
2023/05/27 03:20:07;;;;;;;21.45;6.90;;;12.70;71.10;;;12.13;55.89;101748.91;5007382;28;20080;-81
2023/05/27 03:22:36;;;;;;;21.35;7.28;;;12.70;71.30;;;12.10;55.99;101742.09;5008208;28;20045;-81
2023/05/27 03:25:04;;;;;;;23.88;6.68;;;12.70;71.20;;;12.10;55.87;101743.91;5007793;28;20052;-81
2023/05/27 03:27:31;;;;;;;23.55;7.53;;;12.70;71.00;;;12.09;55.96;101745.75;5006443;28;20103;-81
2023/05/27 03:29:59;;;;;;;28.48;7.15;;;12.70;71.10;;;12.07;56.10;101738.97;5022941;28;20112;-81
2023/05/27 03:32:27;;;;;;;21.45;6.85;;;12.70;71.10;;;12.07;56.02;101747.00;5018066;28;20102;-81
2023/05/27 03:34:54;;;;;;;21.50;6.95;;;12.70;71.30;;;12.06;55.87;101740.00;5004911;28;20053;-81
2023/05/27 03:37:21;;;;;;;22.30;6.90;;;12.70;71.30;;;12.05;56.10;101735.63;5008710;28;20072;-81
2023/05/27 03:40:04;;;;;;;18.98;6.95;;;12.70;71.30;;;12.05;56.13;101740.97;5007904;28;20045;-81
2023/05/27 03:42:33;;;;;;;21.33;7.75;;;12.60;71.20;;;12.04;56.25;101742.00;5027424;28;20133;-81
2023/05/27 03:45:00;;;;;;;25.60;7.75;;;12.60;71.30;;;12.03;56.20;101743.84;5012869;28;20062;-81
2023/05/27 03:47:28;;;;;;;19.75;6.97;;;12.60;71.30;;;12.03;56.22;101738.50;5012019;28;20059;-81
2023/05/27 03:49:56;;;;;;;22.92;7.60;;;12.60;71.50;;;12.02;56.37;101736.03;5012036;28;20740;-81
2023/05/27 03:52:23;;;;;;;23.27;7.72;;;12.60;71.50;;;12.00;56.46;101738.06;5030108;28;20395;-81
2023/05/27 03:54:50;;;;;;;21.27;7.88;;;12.60;71.70;;;12.01;56.40;101734.38;5029642;28;20073;-81
2023/05/27 03:57:19;;;;;;;22.10;7.72;;;12.60;71.70;;;11.99;56.60;101742.56;5023716;28;20115;-81
2023/05/27 03:59:46;;;;;;;21.83;7.53;;;12.60;71.90;;;11.98;56.71;101732.06;5015516;28;20046;-81
2023/05/27 04:02:13;;;;;;;17.48;7.20;;;12.60;71.90;;;11.98;56.79;101740.09;5008610;28;20838;-81
2023/05/27 04:04:40;;;;;;;17.77;7.82;;;12.60;72.10;;;11.96;56.84;101742.16;5010729;28;20398;-81
2023/05/27 04:07:08;;;;;;;24.63;8.32;;;12.60;72.10;;;11.95;57.04;101743.13;5012728;28;20107;-81
2023/05/27 04:09:35;;;;;;;21.30;7.95;;;12.50;72.50;;;11.94;56.93;101738.81;5006097;28;20131;-81
2023/05/27 04:12:02;;;;;;;27.45;8.43;;;12.50;72.20;;;11.96;56.83;101742.16;5029702;28;20141;-81
2023/05/27 04:14:30;;;;;;;27.08;7.60;;;12.60;72.30;;;11.97;57.08;101738.44;5007728;28;20048;-81
2023/05/27 04:16:58;;;;;;;26.25;8.88;;;12.50;72.30;;;11.97;57.06;101743.81;5012862;28;20136;-81
2023/05/27 04:19:25;;;;;;;26.15;7.60;;;12.60;72.30;;;11.97;57.01;101738.44;5028915;28;20041;-81
2023/05/27 04:21:53;;;;;;;22.70;7.43;;;12.50;72.40;;;11.96;57.14;101742.97;5026855;28;20143;-81
2023/05/27 04:24:20;;;;;;;25.65;8.02;;;12.60;72.50;;;11.98;57.22;101732.91;5003947;28;20038;-80
2023/05/27 04:26:48;;;;;;;23.80;7.75;;;12.60;72.90;;;11.98;57.27;101719.53;5017262;28;20060;-81
2023/05/27 04:29:18;;;;;;;20.60;7.35;;;12.60;72.50;;;12.01;57.25;101734.38;5010382;28;20084;-82
2023/05/27 04:31:47;;;;;;;22.80;7.88;;;12.60;72.80;;;12.00;57.51;101730.03;5021144;28;20049;-81
2023/05/27 04:34:18;;;;;;;18.55;7.32;;;12.60;72.90;;;12.01;57.33;101740.56;5009630;28;20152;-81
2023/05/27 04:36:49;;;;;;;19.83;7.65;;;12.60;72.90;;;12.03;57.50;101730.50;5011116;28;20053;-81
2023/05/27 04:39:18;;;;;;;24.38;6.97;;;12.60;73.10;;;12.05;57.61;101739.16;5025911;28;20067;-81
2023/05/27 04:41:47;;;;;;;20.42;7.85;;;12.60;73.10;;;12.14;57.56;101736.34;5010748;28;20494;-82
2023/05/27 04:44:17;;;;;;;27.00;7.28;;;12.90;73.30;;;12.21;57.69;101735.41;5020317;28;20049;-81
2023/05/27 04:46:48;;;;;;;23.08;7.07;;;12.80;73.30;;;12.31;57.61;101735.91;5011049;28;20136;-82
2023/05/27 04:49:16;;;;;;;18.00;6.78;;;12.90;73.20;;;12.42;57.53;101744.44;5008978;28;20046;-82
2023/05/27 04:51:44;;;;;;;21.05;7.78;;;13.00;73.30;;;12.51;57.41;101736.09;5007824;28;20152;-82
2023/05/27 04:54:13;;;;;;;30.17;8.15;;;13.10;73.10;;;12.63;57.40;101741.75;5013859;28;20050;-81
2023/05/27 04:56:41;;;;;;;26.15;7.97;;;13.20;73.10;;;12.74;57.11;101743.09;5002915;28;20575;-82
2023/05/27 04:59:16;;;;;;;26.15;7.53;;;13.30;73.00;;;12.84;56.92;101748.94;5011625;28;20156;-81
2023/05/27 05:01:59;;;;;;;26.27;7.75;;;13.40;72.30;;;12.93;56.59;101746.91;5010033;28;20127;-81
2023/05/27 05:04:34;;;;;;;22.20;7.00;;;13.50;72.10;;;13.03;56.17;101739.34;5003184;28;20128;-81
2023/05/27 05:07:04;;;;;;;22.00;7.78;;;13.60;71.80;;;13.15;56.14;101745.84;5022827;28;20087;-81
2023/05/27 05:09:33;;;;;;;24.27;7.13;;;13.70;71.70;;;13.25;55.89;101730.25;5006192;28;20173;-82
2023/05/27 05:12:08;;;;;;;19.13;6.95;;;13.90;71.30;;;13.36;55.77;101732.38;5001460;28;20045;-82
2023/05/27 05:14:39;;;;;;;22.65;7.78;;;13.90;71.20;;;13.48;55.37;101721.94;4998448;28;20050;-81
2023/05/27 05:17:06;;;;;;;24.17;7.28;;;14.00;70.70;;;13.58;55.35;101717.03;5008510;28;20053;-81
2023/05/27 05:19:35;;;;;;;22.08;7.38;;;14.10;70.50;;;13.67;54.72;101719.53;5011561;28;20046;-82
2023/05/27 05:22:02;;;;;;;19.38;7.25;;;14.20;69.70;;;13.76;54.33;101723.69;5028156;28;20052;-81
2023/05/27 05:24:31;;;;;;;19.15;7.05;;;14.30;69.50;;;13.82;54.28;101718.34;5011637;28;20134;-81
2023/05/27 05:26:58;;;;;;;25.75;7.75;;;14.40;69.30;;;13.88;54.00;101725.59;5010583;28;20140;-82
2023/05/27 05:29:26;;;;;;;23.67;8.02;;;14.50;69.10;;;13.97;54.03;101720.88;5009573;28;20053;-83
2023/05/27 05:31:54;;;;;;;24.23;7.70;;;14.60;69.70;;;14.04;54.20;101719.00;5020556;28;20045;-82
2023/05/27 05:34:23;;;;;;;20.70;6.75;;;14.60;69.50;;;14.08;53.69;101716.75;5010777;28;20046;-84
2023/05/27 05:36:52;;;;;;;26.98;7.80;;;14.70;69.10;;;14.16;53.69;101714.72;5019092;28;20796;-83
2023/05/27 05:39:20;;;;;;;22.92;7.60;;;14.70;68.90;;;14.27;53.82;101721.31;5008009;28;20132;-80
2023/05/27 05:41:51;;;;;;;18.58;7.40;;;14.80;69.00;;;14.34;53.46;101708.72;5024925;28;20099;-81
2023/05/27 05:44:20;;;;;;;20.20;7.72;;;14.90;68.50;;;14.41;52.92;101719.47;5011971;28;20049;-80
2023/05/27 05:46:49;;;;;;;23.02;8.18;;;15.00;67.80;;;14.49;52.81;101715.78;5004467;28;20065;-80
2023/05/27 05:49:18;;;;;;;23.50;7.82;;;15.00;67.90;;;14.54;52.67;101716.84;5026328;28;20049;-80
2023/05/27 05:51:46;;;;;;;25.08;7.75;;;15.10;67.70;;;14.60;52.47;101716.00;4990392;28;20104;-80
2023/05/27 05:54:15;;;;;;;22.45;8.63;;;15.20;67.20;;;14.66;52.28;101709.81;4995113;28;20069;-81
2023/05/27 05:56:46;;;;;;;21.88;7.82;;;15.30;67.30;;;14.75;52.46;101705.06;5010912;28;20070;-82
2023/05/27 05:59:13;;;;;;;24.17;8.25;;;15.40;66.80;;;14.82;52.32;101697.78;5011353;28;20046;-80
2023/05/27 06:01:40;;;;;;;23.52;7.18;;;15.40;66.60;;;14.89;51.91;101703.19;5009230;28;20085;-80
2023/05/27 06:04:08;;;;;;;28.13;7.97;;;15.50;66.10;;;14.96;51.83;101689.72;5009933;28;20037;-80
2023/05/27 06:06:39;;;;;;;19.55;7.47;;;15.50;66.00;;;15.01;51.63;101693.44;5011099;28;20075;-80
2023/05/27 06:09:31;;;;;;;17.75;6.78;;;15.60;66.00;;;15.09;51.83;101695.91;5010391;28;20559;-80
2023/05/27 06:12:01;;;;;;;21.60;7.07;;;15.70;66.00;;;15.15;51.60;101707.66;5026920;28;20481;-80
2023/05/27 06:14:35;;;;;;;20.38;7.10;;;15.70;65.90;;;15.19;50.79;101709.72;5009386;28;20049;-81
2023/05/27 06:17:03;;;;;;;25.05;7.72;;;15.80;64.80;;;15.25;51.11;101710.72;5025000;28;20130;-81
2023/05/27 06:19:30;;;;;;;21.60;7.63;;;15.80;65.00;;;15.34;51.55;101717.53;5027076;28;20131;-80
2023/05/27 06:21:58;;;;;;;24.50;7.78;;;15.90;65.40;;;15.39;50.67;101714.19;5025604;28;20052;-80
2023/05/27 06:25:01;;;;;;;21.35;7.07;;;16.00;64.60;;;15.50;50.80;101701.94;5021863;28;20073;-80
2023/05/27 06:27:47;;;;;;;18.63;7.13;;;16.10;65.00;;;15.57;51.18;101695.53;5021796;28;20406;-81
2023/05/27 06:30:15;;;;;;;26.45;7.22;;;16.10;65.00;;;15.62;51.03;101692.19;5010505;28;20049;-81
2023/05/27 06:32:45;;;;;;;20.40;7.32;;;16.10;64.80;;;15.71;51.23;101688.22;5008000;28;20053;-81
2023/05/27 06:35:13;;;;;;;27.02;7.90;;;16.30;65.10;;;15.82;51.13;101694.81;5006783;28;20048;-81
2023/05/27 06:37:40;;;;;;;22.65;7.35;;;16.40;65.00;;;15.82;49.95;101692.94;5011692;28;20064;-83
2023/05/27 06:40:13;;;;;;;18.48;7.75;;;16.40;63.50;;;15.87;51.15;101701.19;5009902;28;20052;-82
2023/05/27 06:42:41;;;;;;;21.75;7.88;;;16.50;64.90;;;15.96;49.98;101691.81;5007892;28;20085;-80
2023/05/27 06:45:40;;;;;;;19.35;7.20;;;16.60;63.40;;;16.02;49.93;101697.38;5004979;28;20136;-82
2023/05/27 06:48:27;;;;;;;23.55;7.80;;;16.70;63.40;;;16.10;48.96;101689.84;5006471;28;20053;-84
2023/05/27 06:50:54;;;;;;;22.80;7.93;;;16.70;62.20;;;16.14;49.22;101687.53;5007806;28;20056;-85
2023/05/27 06:53:22;;;;;;;21.48;8.55;;;16.80;62.50;;;16.22;48.99;101689.97;5023538;28;20049;-84
2023/05/27 06:55:57;;;;;;;26.67;8.80;;;16.80;62.00;;;16.27;49.50;101683.94;5021919;28;20052;-84
2023/05/27 06:58:53;;;;;;;19.38;7.25;;;16.90;62.80;;;16.34;49.91;101680.13;5023796;28;20050;-84
2023/05/27 07:01:22;;;;;;;25.30;7.95;;;17.00;63.20;;;16.43;50.26;101684.19;5001633;28;20095;-84
2023/05/27 07:03:56;;;;;;;24.30;7.72;;;17.00;63.40;;;16.45;49.06;101681.31;5005984;28;20045;-85
2023/05/27 07:06:36;;;;;;;25.77;8.65;;;17.00;62.10;;;16.49;48.72;101677.09;5008888;28;20079;-84
2023/05/27 07:09:04;;;;;;;23.35;8.20;;;17.10;61.80;;;16.52;48.78;101671.28;5025776;28;20120;-84
2023/05/27 07:11:36;;;;;;;28.75;8.73;;;17.10;61.80;;;16.58;48.70;101674.97;5006289;28;20532;-83
2023/05/27 07:14:09;;;;;;;26.90;8.23;;;17.20;61.80;;;16.61;48.22;101663.75;4998504;28;20450;-87
2023/05/27 07:16:38;;;;;;;19.25;6.72;;;17.20;61.10;;;16.67;48.27;101663.69;5009185;28;20535;-80
2023/05/27 07:19:07;;;;;;;27.13;7.65;;;17.30;61.30;;;16.76;48.90;101661.56;5007683;28;20042;-81
2023/05/27 07:21:41;;;;;;;21.98;7.88;;;17.40;61.80;;;16.83;48.88;101656.91;5008968;28;20052;-84
2023/05/27 07:24:14;;;;;;;21.45;7.97;;;17.40;62.00;;;16.92;48.73;101660.16;5026236;28;20084;-85
2023/05/27 07:26:43;;;;;;;22.98;7.82;;;17.50;61.80;;;16.88;47.12;101657.06;5026757;28;20686;-79
2023/05/27 07:29:11;;;;;;;22.60;7.63;;;17.50;59.70;;;16.89;47.79;101652.53;5010146;28;20045;-81
2023/05/27 07:31:58;;;;;;;20.20;7.47;;;17.50;60.50;;;16.94;47.96;101650.81;5026065;28;20084;-80
2023/05/27 07:34:30;;;;;;;26.92;7.45;;;17.60;60.70;;;16.99;47.51;101647.44;5005827;28;20441;-83
2023/05/27 07:36:57;;;;;;;26.23;7.68;;;17.60;60.00;;;17.09;48.08;101652.31;5009980;28;20053;-83
2023/05/27 07:39:24;;;;;;;24.83;7.63;;;17.70;60.60;;;17.15;48.42;101643.31;5010203;28;20372;-83
2023/05/27 07:41:53;;;;;;;21.17;7.07;;;17.80;60.90;;;17.17;47.13;101642.00;5008102;28;20058;-81
2023/05/27 07:44:21;;;;;;;20.67;7.03;;;17.80;59.30;;;17.24;48.06;101640.06;5005000;28;20041;-82
2023/05/27 07:46:48;;;;;;;27.70;7.97;;;17.80;60.70;;;17.31;47.37;101628.38;5024732;28;20080;-82
2023/05/27 07:49:16;;;;;;;19.50;7.38;;;17.90;59.70;;;17.38;47.12;101634.53;5011849;28;20076;-82
2023/05/27 07:52:01;;;;;;;25.05;7.88;;;18.00;59.30;;;17.38;46.83;101632.66;5026325;28;20184;-82
2023/05/27 07:54:29;;;;;;;22.20;8.10;;;18.00;58.90;;;17.37;46.93;101639.09;5027565;28;20152;-81
2023/05/27 07:56:58;;;;;;;16.63;6.50;;;18.00;59.10;;;17.42;47.11;101641.09;5025413;28;20131;-83
2023/05/27 07:59:25;;;;;;;23.65;7.03;;;18.10;59.30;;;17.51;48.32;101640.53;5008032;28;20053;-83
2023/05/27 08:01:53;;;;;;;19.73;7.35;;;18.10;60.90;;;17.55;47.48;101642.78;5012667;28;20053;-84
2023/05/27 08:04:20;;;;;;;19.25;7.40;;;18.20;59.70;;;17.60;48.13;101632.13;5010044;28;20095;-84
2023/05/27 08:07:00;;;;;;;24.67;7.60;;;18.20;60.40;;;17.66;47.00;101633.91;5026622;28;20049;-83
2023/05/27 08:09:33;;;;;;;20.15;7.82;;;18.30;59.00;;;17.71;46.36;101620.53;5010605;28;20502;-84
2023/05/27 08:12:21;;;;;;;20.65;6.60;;;18.30;58.30;;;17.78;47.10;101620.50;5009372;28;20049;-78
2023/05/27 08:15:09;;;;;;;22.55;7.53;;;18.40;59.30;;;17.82;46.60;101617.13;5024126;28;20057;-79
2023/05/27 08:17:43;;;;;;;19.92;6.60;;;18.40;58.70;;;17.90;48.82;101614.06;5006381;28;20379;-80
2023/05/27 08:20:27;;;;;;;18.85;6.07;;;18.50;61.40;;;17.98;48.53;101604.81;5024217;28;20033;-81
2023/05/27 08:23:08;;;;;;;20.20;6.43;;;18.60;61.10;;;18.07;47.26;101598.03;5009149;28;20050;-81
2023/05/27 08:25:53;;;;;;;17.65;6.43;;;18.70;59.40;;;18.11;47.33;101593.81;5002015;28;20056;-80
2023/05/27 08:28:36;;;;;;;24.15;6.88;;;18.80;60.00;;;18.18;46.01;101596.38;5021049;28;20053;-80
2023/05/27 08:31:22;;;;;;;19.42;6.50;;;18.80;58.00;;;18.20;46.43;101594.25;5029364;28;20541;-80
2023/05/27 08:33:54;;;;;;;25.05;7.65;;;18.90;58.40;;;18.23;45.26;101591.91;5027791;28;20049;-80
2023/05/27 08:36:23;;;;;;;23.58;7.22;;;18.90;57.20;;;18.26;45.12;101591.47;5011870;28;20049;-80
2023/05/27 08:38:52;;;;;;;21.65;6.68;;;19.00;56.90;;;18.28;45.28;101588.50;5026769;28;20057;-80
2023/05/27 08:41:22;;;;;;;16.42;6.82;;;19.00;57.20;;;18.33;46.57;101579.72;5015526;22;20050;-77
2023/05/27 08:43:52;;;;;;;23.30;7.43;;;19.00;58.30;;;18.36;45.34;101592.75;4969782;28;20133;-76
2023/05/27 08:46:19;;;;;;;23.60;7.13;;;19.00;56.90;;;18.34;44.72;101586.75;5015888;28;20041;-77
2023/05/27 08:48:48;;;;;;;21.77;6.72;;;19.00;56.30;;;18.36;45.61;101579.25;5001330;28;20565;-77
2023/05/27 08:51:19;;;;;;;22.58;6.60;;;19.00;56.90;;;18.38;45.24;101574.41;5012292;28;20053;-77
2023/05/27 08:53:47;;;;;;;20.85;6.20;;;19.00;56.80;;;18.43;45.84;101571.84;4993972;28;20050;-77
2023/05/27 08:56:21;;;;;;;20.75;6.55;;;19.10;57.10;;;18.46;46.51;101566.78;4970363;28;20388;-76
2023/05/27 08:58:49;;;;;;;20.83;6.93;;;19.10;58.50;;;18.45;45.85;101567.84;4984654;28;20112;-77
2023/05/27 09:01:19;;;;;;;23.30;6.50;;;19.10;57.30;;;18.46;45.49;101555.16;4993693;28;20056;-78
2023/05/27 09:03:47;;;;;;;;;;;19.10;57.10;;;18.50;45.46;101559.84;4981763;28;20056;-77
2023/05/27 09:06:15;;;;;;;21.13;6.05;;;19.20;57.00;;;18.52;45.64;101565.00;4990168;28;20357;-77
2023/05/27 09:08:42;;;;;;;13.32;5.32;;;19.20;57.30;;;18.55;45.78;101556.44;4999270;28;20044;-77
2023/05/27 09:11:20;;;;;;;22.00;7.00;;;19.20;57.20;;;18.60;45.62;101551.16;4997010;28;20058;-77
2023/05/27 09:13:48;;;;;;;20.05;6.55;;;19.30;57.10;;;18.60;44.67;101547.63;4981840;28;20085;-77
2023/05/27 09:16:20;;;;;;;23.08;6.75;;;19.30;56.30;;;18.53;44.51;101542.34;4985613;28;20049;-78
2023/05/27 09:18:48;;;;;;;26.83;6.93;;;19.20;56.00;;;18.52;45.10;101540.69;4990109;28;20510;-79
2023/05/27 09:21:15;;;;;;;20.30;6.47;;;19.20;56.40;;;18.55;45.62;101539.41;4997866;28;20133;-79
2023/05/27 09:23:43;;;;;;;20.92;6.40;;;19.20;57.20;;;18.51;44.78;101534.47;5000336;28;20407;-79
2023/05/27 09:26:11;;;;;;;20.05;6.47;;;19.20;56.60;;;18.56;45.39;101543.75;4990271;28;20038;-79
2023/05/27 09:28:39;;;;;;;19.20;5.72;;;19.20;57.00;;;18.55;43.81;101539.41;4993911;28;20125;-79
2023/05/27 09:31:09;;;;;;;19.42;6.10;;;19.20;55.20;;;18.52;43.97;101536.13;4983341;28;20456;-79
2023/05/27 09:33:40;;;;;;;24.65;6.25;;;19.20;55.20;;;18.51;43.30;101537.19;4978250;28;20130;-81
2023/05/27 09:36:09;;;;;;;26.65;5.95;;;19.20;54.60;;;18.50;43.16;101516.63;5001313;28;20482;-80
2023/05/27 09:38:37;;;;;;;19.80;6.25;;;19.20;54.40;;;18.53;43.78;101531.53;4989838;28;20052;-81
2023/05/27 09:41:05;;;;;;;22.85;5.88;;;19.20;54.90;;;18.61;44.32;101527.66;4994856;28;20050;-80
2023/05/27 09:43:32;;;;;;;19.38;5.60;;;19.30;55.50;;;18.60;43.41;101518.72;5005327;28;20074;-82
2023/05/27 09:46:02;;;;;;;19.00;5.60;;;19.30;55.00;;;18.60;44.02;101523.31;5002464;28;20038;-81
2023/05/27 09:48:31;;;;;;;19.23;5.68;;;19.30;55.10;;;18.60;43.95;101510.63;4992139;28;20050;-82
2023/05/27 09:51:01;;;;;;;20.05;6.13;;;19.30;55.30;;;18.63;44.61;101514.72;4980362;28;20056;-82
2023/05/27 09:53:30;;;;;;;19.00;5.65;;;19.40;55.90;;;18.63;42.39;101515.53;4995889;28;20046;-83
2023/05/27 09:55:58;;;;;;;18.52;5.43;;;19.30;53.20;;;18.59;42.97;101513.53;4996791;28;20844;-81
2023/05/27 09:58:26;;;;;;;20.85;5.72;;;19.30;54.10;;;18.57;42.34;101500.28;4988981;28;20054;-79
2023/05/27 10:00:56;;;;;;;17.05;5.50;;;19.30;53.40;;;18.57;43.38;101504.88;4988620;28;20500;-82
2023/05/27 10:03:24;;;;;;;20.52;5.35;;;19.30;54.40;;;18.62;44.21;101502.25;4984531;28;20046;-80
2023/05/27 10:05:52;;;;;;;21.50;5.50;;;19.30;55.60;;;18.70;44.37;101510.03;4999541;28;20049;-82
2023/05/27 10:08:21;;;;;;;21.58;5.65;;;19.40;55.30;;;18.72;44.05;101502.50;4990750;28;20042;-81
2023/05/27 10:10:49;;;;;;;20.05;5.28;;;19.40;55.00;;;18.73;42.14;101496.03;4988840;28;20129;-82
2023/05/27 10:13:20;;;;;;;17.45;5.20;;;19.50;52.90;;;18.72;42.34;101492.50;4976836;28;20046;-81
2023/05/27 10:15:49;;;;;;;15.35;5.10;;;19.50;53.30;;;18.72;40.69;101495.19;4984286;28;20047;-80
2023/05/27 10:18:24;;;;;;;15.30;5.30;;;19.40;51.30;;;18.73;40.77;101493.31;5001443;28;20521;-80